Time;durP1;ratioP1;P1;durP2;ratioP2;P2;SDS_P1;SDS_P2;PMS_P1;PMS_P2;Temp;Humidity;BMP_temperature;BMP_pressure;BME280_temperature;BME280_humidity;BME280_pressure;Samples;Min_cycle;Max_cycle;Signal;HPM_P1;HPM_P2
2023/06/21 00:01:44;;;;;;;6.05;4.03;;;;;;;;;;5071363;28;20857;-80
2023/06/21 00:04:10;;;;;;;7.15;4.25;;;;;;;;;;5071155;28;20392;-78
2023/06/21 00:06:38;;;;;;;6.07;4.55;;;;;;;;;;5053057;28;20398;-78
2023/06/21 00:09:04;;;;;;;7.32;4.47;;;;;;;;;;5071197;28;20857;-80
2023/06/21 00:11:33;;;;;;;7.30;4.38;;;;;;;;;;5071203;28;20906;-80
2023/06/21 00:13:59;;;;;;;6.75;4.32;;;;;;;;;;5070969;28;20384;-78
2023/06/21 00:16:25;;;;;;;6.63;4.63;;;;;;;;;;5071122;28;20425;-78
2023/06/21 00:18:51;;;;;;;5.85;4.40;;;;;;;;;;5071167;28;20710;-78
2023/06/21 00:21:17;;;;;;;6.28;4.07;;;;;;;;;;5071162;28;20804;-78
2023/06/21 00:23:44;;;;;;;7.30;4.30;;;;;;;;;;5075173;28;20378;-78
2023/06/21 00:26:10;;;;;;;8.40;4.50;;;;;;;;;;5090350;28;20370;-78
2023/06/21 00:28:36;;;;;;;5.63;4.30;;;;;;;;;;5069979;28;20379;-78
2023/06/21 00:31:03;;;;;;;8.82;4.22;;;;;;;;;;5070683;28;20379;-78
2023/06/21 00:33:29;;;;;;;5.15;3.92;;;;;;;;;;5070514;28;20450;-78
2023/06/21 00:35:55;;;;;;;7.85;4.53;;;;;;;;;;5070641;28;20463;-79
2023/06/21 00:38:20;;;;;;;7.40;4.25;;;;;;;;;;5070989;28;20368;-78
2023/06/21 00:40:49;;;;;;;9.82;5.28;;;;;;;;;;5052863;28;20398;-78
2023/06/21 00:43:16;;;;;;;6.65;4.53;;;;;;;;;;5070859;28;20462;-78
2023/06/21 00:45:45;;;;;;;6.80;4.80;;;;;;;;;;5070599;28;20908;-78
2023/06/21 00:48:11;;;;;;;9.02;5.13;;;;;;;;;;5083838;28;20386;-78
2023/06/21 00:50:41;;;;;;;6.20;4.60;;;;;;;;;;5075234;28;20420;-78
2023/06/21 00:53:08;;;;;;;6.03;4.87;;;;;;;;;;5074965;28;20422;-78
2023/06/21 00:55:35;;;;;;;6.87;4.70;;;;;;;;;;5074442;28;20383;-77
2023/06/21 00:58:01;;;;;;;6.68;4.35;;;;;;;;;;5074652;28;20423;-80
2023/06/21 01:00:27;;;;;;;8.55;5.30;;;;;;;;;;5074495;28;20860;-80
2023/06/21 01:02:56;;;;;;;8.45;5.22;;;;;;;;;;5074506;28;20425;-80
2023/06/21 01:05:24;;;;;;;5.60;5.10;;;;;;;;;;5074381;28;20482;-80
2023/06/21 01:07:50;;;;;;;6.43;4.93;;;;;;;;;;5074342;28;20384;-80
2023/06/21 01:10:32;;;;;;;5.07;4.55;;;;;;;;;;5074239;28;20513;-80
2023/06/21 01:13:15;;;;;;;5.85;4.18;;;;;;;;;;5074217;28;20404;-80
2023/06/21 01:15:46;;;;;;;5.97;4.90;;;;;;;;;;5074213;28;20829;-80
2023/06/21 01:18:14;;;;;;;7.95;6.20;;;;;;;;;;5074277;28;20880;-80
2023/06/21 01:20:41;;;;;;;7.88;5.85;;;;;;;;;;5074126;28;20376;-80
2023/06/21 01:23:09;;;;;;;5.82;5.28;;;;;;;;;;5074147;28;20384;-79
2023/06/21 01:25:54;;;;;;;9.50;5.95;;;;;;;;;;5073995;28;20861;-79
2023/06/21 01:28:32;;;;;;;7.47;5.40;;;;;;;;;;5075769;28;20888;-79
2023/06/21 01:30:59;;;;;;;7.55;5.80;;;;;;;;;;5073508;28;20383;-79
2023/06/21 01:33:27;;;;;;;6.45;5.28;;;;;;;;;;5073471;28;20376;-79
2023/06/21 01:35:54;;;;;;;7.32;5.70;;;;;;;;;;5061681;28;20374;-80
2023/06/21 01:38:21;;;;;;;5.85;5.25;;;;;;;;;;5073429;28;20931;-79
2023/06/21 01:40:47;;;;;;;6.05;4.82;;;;;;;;;;5073606;28;20415;-79
2023/06/21 01:43:14;;;;;;;6.22;5.25;;;;;;;;;;5073608;28;20372;-80
2023/06/21 01:45:41;;;;;;;7.03;4.70;;;;;;;;;;5073512;28;20907;-79
2023/06/21 01:48:07;;;;;;;5.38;4.70;;;;;;;;;;5073677;28;20425;-80
2023/06/21 01:50:34;;;;;;;8.23;4.97;;;;;;;;;;5073577;28;20372;-79
2023/06/21 01:53:01;;;;;;;6.05;4.70;;;;;;;;;;5073529;28;20400;-79
2023/06/21 01:55:27;;;;;;;7.32;4.72;;;;;;;;;;5073446;28;20422;-79
2023/06/21 01:57:53;;;;;;;6.82;4.80;;;;;;;;;;5073465;28;20845;-79
2023/06/21 02:00:21;;;;;;;5.85;5.00;;;;;;;;;;5072813;28;20402;-79
2023/06/21 02:02:53;;;;;;;6.70;4.82;;;;;;;;;;5073430;28;20387;-79
2023/06/21 02:05:20;;;;;;;6.68;4.65;;;;;;;;;;5055375;28;20467;-79
2023/06/21 02:07:46;;;;;;;5.22;4.75;;;;;;;;;;5073365;28;20467;-79
2023/06/21 02:10:14;;;;;;;6.38;4.38;;;;;;;;;;5073145;28;20414;-80
2023/06/21 02:12:40;;;;;;;5.40;4.20;;;;;;;;;;5072900;28;20407;-79
2023/06/21 02:15:07;;;;;;;4.97;4.35;;;;;;;;;;5073207;28;20387;-79
2023/06/21 02:17:33;;;;;;;6.05;4.60;;;;;;;;;;5073085;28;20404;-80
2023/06/21 02:19:59;;;;;;;5.45;4.95;;;;;;;;;;5054745;28;20911;-80
2023/06/21 02:22:25;;;;;;;7.47;6.07;;;;;;;;;;5087433;28;20413;-79
2023/06/21 02:24:51;;;;;;;4.75;4.28;;;;;;;;;;5093193;28;20406;-79
2023/06/21 02:27:17;;;;;;;6.85;5.25;;;;;;;;;;5093107;28;20406;-79
2023/06/21 02:29:44;;;;;;;5.35;4.72;;;;;;;;;;5093015;28;20472;-80
2023/06/21 02:32:10;;;;;;;5.80;5.10;;;;;;;;;;5085275;28;20880;-80
2023/06/21 02:34:36;;;;;;;6.70;5.47;;;;;;;;;;5072442;28;20375;-79
2023/06/21 02:37:02;;;;;;;7.50;5.50;;;;;;;;;;5066109;28;20379;-80
2023/06/21 02:39:28;;;;;;;7.70;6.20;;;;;;;;;;5072195;28;20873;-80
2023/06/21 02:41:54;;;;;;;6.55;5.95;;;;;;;;;;5072315;28;20414;-80
2023/06/21 02:44:20;;;;;;;6.80;6.10;;;;;;;;;;5072451;28;20407;-79
2023/06/21 02:46:46;;;;;;;7.57;6.60;;;;;;;;;;5087179;28;20381;-80
2023/06/21 02:49:12;;;;;;;7.25;6.40;;;;;;;;;;5092579;28;20392;-79
2023/06/21 02:51:38;;;;;;;7.75;6.25;;;;;;;;;;5092731;28;20409;-79
2023/06/21 02:54:04;;;;;;;10.00;6.88;;;;;;;;;;5083012;28;20384;-80
2023/06/21 02:56:30;;;;;;;7.43;6.63;;;;;;;;;;5072302;28;20368;-79
2023/06/21 02:58:56;;;;;;;8.88;7.25;;;;;;;;;;5072155;28;20860;-80
2023/06/21 03:01:23;;;;;;;12.52;7.90;;;;;;;;;;5072314;28;20375;-80
2023/06/21 03:03:49;;;;;;;7.73;6.97;;;;;;;;;;5072147;28;20387;-79
2023/06/21 03:06:15;;;;;;;11.68;8.50;;;;;;;;;;5071978;28;20772;-79
2023/06/21 03:08:41;;;;;;;7.72;7.03;;;;;;;;;;5072017;28;20437;-79
2023/06/21 03:11:08;;;;;;;8.20;7.43;;;;;;;;;;5072023;28;20379;-80
2023/06/21 03:13:37;;;;;;;8.00;7.22;;;;;;;;;;5071193;28;20922;-80
2023/06/21 03:16:04;;;;;;;7.88;7.18;;;;;;;;;;5071724;28;20382;-79
2023/06/21 03:18:30;;;;;;;8.55;7.70;;;;;;;;;;5071915;28;20875;-79
2023/06/21 03:21:01;;;;;;;7.70;7.03;;;;;;;;;;5071942;28;20379;-79
2023/06/21 03:23:27;;;;;;;8.07;7.40;;;;;;;;;;5071890;28;20771;-79
2023/06/21 03:25:53;;;;;;;8.95;8.05;;;;;;;;;;5084014;22;20539;-81
2023/06/21 03:28:19;;;;;;;8.35;7.47;;;;;;;;;;5071636;28;20908;-82
2023/06/21 03:30:45;;;;;;;12.95;8.48;;;;;;;;;;5071617;28;20380;-82
2023/06/21 03:33:11;;;;;;;8.43;7.72;;;;;;;;;;5071412;28;20911;-81
2023/06/21 03:35:37;;;;;;;8.07;7.38;;;;;;;;;;5064448;28;20799;-83
2023/06/21 03:38:03;;;;;;;9.18;8.45;;;;;;;;;;5063380;28;20466;-83
2023/06/21 03:40:29;;;;;;;7.90;7.22;;;;;;;;;;5042500;28;20405;-82
2023/06/21 03:42:55;;;;;;;10.68;8.48;;;;;;;;;;5033092;28;20493;-82
2023/06/21 03:45:22;;;;;;;8.47;7.77;;;;;;;;;;5044672;28;20491;-82
2023/06/21 03:47:48;;;;;;;10.27;9.20;;;;;;;;;;5044911;28;20388;-82
2023/06/21 03:50:14;;;;;;;8.52;7.82;;;;;;;;;;5051591;28;20878;-82
2023/06/21 03:52:40;;;;;;;8.67;7.87;;;;;;;;;;5033225;28;20916;-82
2023/06/21 03:55:07;;;;;;;7.93;7.22;;;;;;;;;;5051040;28;20388;-82
2023/06/21 03:57:33;;;;;;;9.57;8.00;;;;;;;;;;5051330;28;20377;-82
2023/06/21 03:59:59;;;;;;;8.57;7.63;;;;;;;;;;5051231;28;20427;-81
2023/06/21 04:02:25;;;;;;;10.52;7.95;;;;;;;;;;5051079;28;20389;-82
2023/06/21 04:04:52;;;;;;;7.45;6.80;;;;;;;;;;5051127;28;20389;-82
2023/06/21 04:07:19;;;;;;;8.25;7.55;;;;;;;;;;5051045;28;20393;-82
2023/06/21 04:09:45;;;;;;;9.90;8.00;;;;;;;;;;5051150;28;20377;-82
2023/06/21 04:12:11;;;;;;;11.55;10.00;;;;;;;;;;5050966;28;20437;-82
2023/06/21 04:14:38;;;;;;;9.80;8.95;;;;;;;;;;5057061;28;20398;-82
2023/06/21 04:17:04;;;;;;;9.50;8.70;;;;;;;;;;5071018;28;20446;-81
2023/06/21 04:19:30;;;;;;;9.10;8.30;;;;;;;;;;5071077;28;20407;-82
2023/06/21 04:21:56;;;;;;;9.02;8.15;;;;;;;;;;5070950;28;20453;-81
2023/06/21 04:24:22;;;;;;;9.32;8.25;;;;;;;;;;5073071;28;20425;-81
2023/06/21 04:26:48;;;;;;;9.15;8.25;;;;;;;;;;5074840;28;20419;-83
2023/06/21 04:29:16;;;;;;;10.07;9.07;;;;;;;;;;5075028;28;20387;-82
2023/06/21 04:31:45;;;;;;;10.18;9.27;;;;;;;;;;5074711;28;20446;-84
2023/06/21 04:34:11;;;;;;;11.00;9.82;;;;;;;;;;5074929;28;20833;-82
2023/06/21 04:36:38;;;;;;;11.00;9.90;;;;;;;;;;5074805;28;20383;-84
2023/06/21 04:39:04;;;;;;;10.95;9.95;;;;;;;;;;5068666;28;20386;-82
2023/06/21 04:41:30;;;;;;;12.30;11.30;;;;;;;;;;5048986;28;20389;-85
2023/06/21 04:43:56;;;;;;;10.10;9.30;;;;;;;;;;5044263;28;20860;-83
2023/06/21 04:46:23;;;;;;;10.02;8.93;;;;;;;;;;5058521;28;20404;-84
2023/06/21 04:48:50;;;;;;;10.30;9.27;;;;;;;;;;5041522;28;20466;-83
2023/06/21 04:51:16;;;;;;;12.40;11.32;;;;;;;;;;5041302;28;20403;-84
2023/06/21 04:53:42;;;;;;;10.13;9.32;;;;;;;;;;5034719;28;20371;-84
2023/06/21 04:56:09;;;;;;;9.57;8.88;;;;;;;;;;5034528;28;20470;-84
2023/06/21 04:58:38;;;;;;;10.07;9.10;;;;;;;;;;5034497;28;20383;-84
2023/06/21 05:01:04;;;;;;;9.30;8.60;;;;;;;;;;5034668;28;20429;-84
2023/06/21 05:03:32;;;;;;;9.63;8.70;;;;;;;;;;5034527;28;20410;-85
2023/06/21 05:05:59;;;;;;;9.63;8.73;;;;;;;;;;5034382;28;20843;-84
2023/06/21 05:08:25;;;;;;;9.88;8.93;;;;;;;;;;5034313;28;20378;-84
2023/06/21 05:10:51;;;;;;;13.30;11.82;;;;;;;;;;5049563;28;20474;-84
2023/06/21 05:13:17;;;;;;;11.80;10.80;;;;;;;;;;5034271;28;20402;-85
2023/06/21 05:15:43;;;;;;;12.88;11.35;;;;;;;;;;5034273;28;20390;-84
2023/06/21 05:18:09;;;;;;;10.60;9.80;;;;;;;;;;5034144;28;20382;-84
2023/06/21 05:20:35;;;;;;;12.02;10.57;;;;;;;;;;5049426;28;20852;-84
2023/06/21 05:23:01;;;;;;;11.68;10.52;;;;;;;;;;5034060;28;20448;-84
2023/06/21 05:25:27;;;;;;;12.68;11.50;;;;;;;;;;5033897;28;20419;-84
2023/06/21 05:27:53;;;;;;;11.88;10.75;;;;;;;;;;5030606;28;20742;-84
2023/06/21 05:30:19;;;;;;;14.63;11.68;;;;;;;;;;5053784;28;20379;-84
2023/06/21 05:32:46;;;;;;;11.63;10.30;;;;;;;;;;5054150;28;20747;-85
2023/06/21 05:35:12;;;;;;;14.40;11.37;;;;;;;;;;5053058;28;20862;-84
2023/06/21 05:37:38;;;;;;;11.65;10.43;;;;;;;;;;5050381;28;20770;-85
2023/06/21 05:40:08;;;;;;;11.07;10.10;;;;;;;;;;5056162;28;20464;-85
2023/06/21 05:42:35;;;;;;;10.05;9.05;;;;;;;;;;5053740;28;20412;-84
2023/06/21 05:45:01;;;;;;;14.73;12.43;;;;;;;;;;5053558;28;20468;-85
2023/06/21 05:47:27;;;;;;;11.15;10.25;;;;;;;;;;5053360;28;20843;-85
2023/06/21 05:49:53;;;;;;;10.48;9.45;;;;;;;;;;5048607;28;20381;-85
2023/06/21 05:52:19;;;;;;;11.75;10.07;;;;;;;;;;5047964;28;20402;-85
2023/06/21 05:54:45;;;;;;;10.77;9.68;;;;;;;;;;5048171;28;20715;-84
2023/06/21 05:57:11;;;;;;;11.00;9.98;;;;;;;;;;5036722;28;20375;-85
2023/06/21 05:59:37;;;;;;;14.15;10.07;;;;;;;;;;5033307;28;20411;-85
2023/06/21 06:02:03;;;;;;;10.05;9.10;;;;;;;;;;5033440;28;20402;-85
2023/06/21 06:04:29;;;;;;;11.00;10.00;;;;;;;;;;5033341;28;20391;-84
2023/06/21 06:06:55;;;;;;;10.57;9.48;;;;;;;;;;5033048;28;20402;-84
2023/06/21 06:09:21;;;;;;;10.27;9.20;;;;;;;;;;5033269;28;20383;-85
2023/06/21 06:11:47;;;;;;;9.48;8.57;;;;;;;;;;5059939;28;20923;-85
2023/06/21 06:14:13;;;;;;;9.75;8.85;;;;;;;;;;5073071;28;20411;-85
2023/06/21 06:16:39;;;;;;;10.80;9.70;;;;;;;;;;5072723;28;20375;-84
2023/06/21 06:19:05;;;;;;;11.93;10.82;;;;;;;;;;5072947;28;20880;-84
2023/06/21 06:21:31;;;;;;;10.73;9.82;;;;;;;;;;5054942;28;20861;-84
2023/06/21 06:23:57;;;;;;;11.43;10.30;;;;;;;;;;5072797;28;20394;-84
2023/06/21 06:26:24;;;;;;;9.85;8.95;;;;;;;;;;5072523;28;20420;-85
2023/06/21 06:28:50;;;;;;;10.77;9.75;;;;;;;;;;5072804;28;20442;-84
2023/06/21 06:31:19;;;;;;;10.83;9.53;;;;;;;;;;5072589;28;20878;-84
2023/06/21 06:33:45;;;;;;;11.07;9.98;;;;;;;;;;5072575;28;20406;-84
2023/06/21 06:36:11;;;;;;;10.85;9.75;;;;;;;;;;5072497;28;20368;-84
2023/06/21 06:38:37;;;;;;;11.48;10.27;;;;;;;;;;5072597;28;20392;-84
2023/06/21 06:41:03;;;;;;;13.00;10.77;;;;;;;;;;5072617;28;20386;-84
2023/06/21 06:43:29;;;;;;;11.15;10.07;;;;;;;;;;5061963;28;20382;-84
2023/06/21 06:45:55;;;;;;;12.73;10.73;;;;;;;;;;5052309;28;20762;-84
2023/06/21 06:48:21;;;;;;;11.13;10.02;;;;;;;;;;5052424;28;20374;-84
2023/06/21 06:50:47;;;;;;;14.23;10.63;;;;;;;;;;5059744;28;20483;-84
2023/06/21 06:53:12;;;;;;;13.93;10.50;;;;;;;;;;5072198;28;20416;-83
2023/06/21 06:55:38;;;;;;;10.80;9.80;;;;;;;;;;5060362;28;20468;-84
2023/06/21 06:58:04;;;;;;;11.70;10.60;;;;;;;;;;5042019;28;20383;-84
2023/06/21 07:00:30;;;;;;;11.57;10.40;;;;;;;;;;5046376;28;20378;-84
2023/06/21 07:02:57;;;;;;;12.90;10.43;;;;;;;;;;5049316;28;20434;-84
2023/06/21 07:05:26;;;;;;;11.07;10.02;;;;;;;;;;5039300;28;20860;-84
2023/06/21 07:07:53;;;;;;;14.93;11.40;;;;;;;;;;5052096;28;20381;-83
2023/06/21 07:10:19;;;;;;;12.53;11.13;;;;;;;;;;5052089;28;20428;-84
2023/06/21 07:12:45;;;;;;;12.88;11.18;;;;;;;;;;5051859;28;20408;-84
2023/06/21 07:15:12;;;;;;;18.80;11.23;;;;;;;;;;5051821;28;20380;-84
2023/06/21 07:17:37;;;;;;;15.27;11.37;;;;;;;;;;5051947;28;20518;-84
2023/06/21 07:20:06;;;;;;;12.10;10.27;;;;;;;;;;5051924;28;20417;-84
2023/06/21 07:22:33;;;;;;;17.48;11.25;;;;;;;;;;5051761;28;20460;-84
2023/06/21 07:24:59;;;;;;;15.57;11.25;;;;;;;;;;5051671;28;20431;-84
2023/06/21 07:27:29;;;;;;;15.48;11.52;;;;;;;;;;5051637;28;20428;-84
2023/06/21 07:29:55;;;;;;;13.85;11.02;;;;;;;;;;5051646;28;20377;-84
2023/06/21 07:32:21;;;;;;;14.23;11.37;;;;;;;;;;5054513;28;20766;-83
2023/06/21 07:34:48;;;;;;;11.63;10.47;;;;;;;;;;5051863;28;20380;-84
2023/06/21 07:37:14;;;;;;;12.32;11.02;;;;;;;;;;5051528;28;20370;-83
2023/06/21 07:39:40;;;;;;;15.73;12.50;;;;;;;;;;5048004;28;20370;-83
2023/06/21 07:42:07;;;;;;;19.23;14.55;;;;;;;;;;5051406;28;20854;-81
2023/06/21 07:44:33;;;;;;;19.20;14.63;;;;;;;;;;5051757;28;20469;-83
2023/06/21 07:46:59;;;;;;;26.07;8.33;;;;;;;;;;5051375;28;20472;-78
2023/06/21 07:49:25;;;;;;;20.98;6.47;;;;;;;;;;5051249;28;20447;-77
2023/06/21 07:51:51;;;;;;;17.35;6.22;;;;;;;;;;5051230;28;20409;-79
2023/06/21 07:54:18;;;;;;;14.77;5.75;;;;;;;;;;5051393;28;20851;-78
2023/06/21 07:56:43;;;;;;;18.65;6.32;;;;;;;;;;5051301;28;20381;-79
2023/06/21 07:59:09;;;;;;;14.93;5.67;;;;;;;;;;5050758;28;20447;-79
2023/06/21 08:01:35;;;;;;;16.52;5.80;;;;;;;;;;5045013;28;20397;-81
2023/06/21 08:04:03;;;;;;;17.02;5.30;;;;;;;;;;5021455;28;21000;-80
2023/06/21 08:06:29;;;;;;;12.33;4.47;;;;;;;;;;5037898;28;20394;-82
2023/06/21 08:08:55;;;;;;;12.80;4.75;;;;;;;;;;5045730;28;20726;-82
2023/06/21 08:11:21;;;;;;;14.43;4.32;;;;;;;;;;5037074;28;20467;-83
2023/06/21 08:13:47;;;;;;;11.43;4.47;;;;;;;;;;5033066;28;20379;-83
2023/06/21 08:16:13;;;;;;;12.05;3.97;;;;;;;;;;5070499;28;20384;-83
2023/06/21 08:18:39;;;;;;;13.63;4.05;;;;;;;;;;5071011;28;20837;-83
2023/06/21 08:21:05;;;;;;;10.43;4.00;;;;;;;;;;5070913;28;20429;-84
2023/06/21 08:23:31;;;;;;;9.68;4.10;;;;;;;;;;5071339;28;20795;-83
2023/06/21 08:25:57;;;;;;;11.57;3.95;;;;;;;;;;5070731;28;20406;-84
2023/06/21 08:28:23;;;;;;;9.52;3.83;;;;;;;;;;5070894;28;20380;-84
2023/06/21 08:30:49;;;;;;;14.10;4.13;;;;;;;;;;5070906;28;20384;-84
2023/06/21 08:33:15;;;;;;;11.88;3.97;;;;;;;;;;5070904;28;20410;-84
2023/06/21 08:35:41;;;;;;;8.82;3.63;;;;;;;;;;5070876;28;20379;-84
2023/06/21 08:38:07;;;;;;;10.73;4.28;;;;;;;;;;5070811;28;20391;-84
2023/06/21 08:40:36;;;;;;;11.10;4.57;;;;;;;;;;5070772;28;20451;-85
2023/06/21 08:43:02;;;;;;;10.75;4.20;;;;;;;;;;5070912;28;20373;-85
2023/06/21 08:45:28;;;;;;;10.10;4.30;;;;;;;;;;5070757;28;20422;-85
2023/06/21 08:47:55;;;;;;;9.35;4.50;;;;;;;;;;5053744;28;20409;-85
2023/06/21 08:50:22;;;;;;;8.73;4.10;;;;;;;;;;5050672;28;20468;-85
2023/06/21 08:52:48;;;;;;;13.33;4.90;;;;;;;;;;5047345;28;20402;-85
2023/06/21 08:55:16;;;;;;;10.23;4.15;;;;;;;;;;5050635;28;20385;-85
2023/06/21 08:57:46;;;;;;;9.52;3.90;;;;;;;;;;5050607;28;20373;-85
2023/06/21 09:00:13;;;;;;;10.70;4.50;;;;;;;;;;5050678;28;20881;-84
2023/06/21 09:02:44;;;;;;;8.73;3.95;;;;;;;;;;5050919;28;20385;-85
2023/06/21 09:05:13;;;;;;;9.55;4.35;;;;;;;;;;5043504;28;20381;-84
2023/06/21 09:07:39;;;;;;;9.77;4.23;;;;;;;;;;5033601;28;20433;-84
2023/06/21 09:10:06;;;;;;;16.30;5.20;;;;;;;;;;5047356;28;20447;-84
2023/06/21 09:12:34;;;;;;;11.77;4.68;;;;;;;;;;5045066;28;20409;-84
2023/06/21 09:15:00;;;;;;;8.57;4.00;;;;;;;;;;5038761;28;20779;-85
2023/06/21 09:17:27;;;;;;;10.43;4.43;;;;;;;;;;5051563;28;20926;-85
2023/06/21 09:19:53;;;;;;;10.90;4.57;;;;;;;;;;5054027;28;20384;-85
2023/06/21 09:22:19;;;;;;;10.17;4.47;;;;;;;;;;5054073;28;20720;-85
2023/06/21 09:24:45;;;;;;;12.88;4.93;;;;;;;;;;5056378;28;20412;-85
2023/06/21 09:27:11;;;;;;;11.75;4.88;;;;;;;;;;5053931;28;20495;-86
2023/06/21 09:29:37;;;;;;;14.15;4.90;;;;;;;;;;5056413;28;20420;-85
2023/06/21 09:32:04;;;;;;;12.65;4.85;;;;;;;;;;5053889;28;20408;-86
2023/06/21 09:34:30;;;;;;;10.30;4.10;;;;;;;;;;5054116;28;20445;-84
2023/06/21 09:36:56;;;;;;;8.40;4.07;;;;;;;;;;5053513;28;20798;-85
2023/06/21 09:39:25;;;;;;;10.98;5.00;;;;;;;;;;5035719;28;20373;-86
2023/06/21 09:41:51;;;;;;;15.43;5.55;;;;;;;;;;5053652;28;20884;-86
2023/06/21 09:44:20;;;;;;;9.55;5.30;;;;;;;;;;5053721;28;20389;-86
2023/06/21 09:46:50;;;;;;;16.92;4.75;;;;;;;;;;5053349;28;20412;-87
2023/06/21 09:49:16;;;;;;;9.32;4.15;;;;;;;;;;5032087;28;20906;-86
2023/06/21 09:51:51;;;;;;;9.27;3.65;;;;;;;;;;5053648;28;20412;-86
2023/06/21 09:54:17;;;;;;;12.20;3.58;;;;;;;;;;5053723;28;20368;-86
2023/06/21 09:56:43;;;;;;;10.45;3.90;;;;;;;;;;5053301;28;20390;-86
2023/06/21 09:59:15;;;;;;;10.15;3.70;;;;;;;;;;5053288;28;20373;-85
2023/06/21 10:01:46;;;;;;;8.68;3.50;;;;;;;;;;5053309;28;20377;-85
2023/06/21 10:04:16;;;;;;;8.25;3.65;;;;;;;;;;5053166;28;20385;-86
2023/06/21 10:06:49;;;;;;;7.72;4.03;;;;;;;;;;5057101;28;20399;-85
2023/06/21 10:09:15;;;;;;;6.60;3.10;;;;;;;;;;5037147;28;20378;-85
2023/06/21 10:11:43;;;;;;;9.18;3.83;;;;;;;;;;5049875;28;20497;-84
2023/06/21 10:14:17;;;;;;;9.73;4.10;;;;;;;;;;5044520;28;20437;-84
2023/06/21 10:16:43;;;;;;;9.35;3.40;;;;;;;;;;5039393;28;20393;-83
2023/06/21 10:19:10;;;;;;;10.50;3.65;;;;;;;;;;5053013;28;20385;-83
2023/06/21 10:21:37;;;;;;;11.30;4.13;;;;;;;;;;5052546;28;20427;-83
2023/06/21 10:24:05;;;;;;;9.13;3.90;;;;;;;;;;5052841;28;20389;-83
2023/06/21 10:26:32;;;;;;;7.70;3.57;;;;;;;;;;5052482;28;20405;-83
2023/06/21 10:29:00;;;;;;;6.97;3.20;;;;;;;;;;5052822;28;20858;-83
2023/06/21 10:31:28;;;;;;;7.78;3.38;;;;;;;;;;5052618;28;20373;-83
2023/06/21 10:33:56;;;;;;;9.75;5.00;;;;;;;;;;5052717;28;20378;-83
2023/06/21 10:36:24;;;;;;;11.90;6.25;;;;;;;;;;5034621;28;20911;-83
2023/06/21 10:38:51;;;;;;;13.55;6.47;;;;;;;;;;5052697;28;20389;-82
2023/06/21 10:41:17;;;;;;;13.07;6.13;;;;;;;;;;5052552;28;20374;-82
2023/06/21 10:43:44;;;;;;;11.77;5.72;;;;;;;;;;5052639;28;20405;-82
2023/06/21 10:46:11;;;;;;;9.15;5.20;;;;;;;;;;5052387;28;20382;-82
2023/06/21 10:48:38;;;;;;;11.95;6.60;;;;;;;;;;5052532;28;20388;-82
2023/06/21 10:51:04;;;;;;;11.88;5.82;;;;;;;;;;5052321;28;20386;-82
2023/06/21 10:53:34;;;;;;;10.70;4.82;;;;;;;;;;5051268;28;20454;-82
2023/06/21 10:56:00;;;;;;;11.95;4.65;;;;;;;;;;5062432;28;20376;-82
2023/06/21 10:58:27;;;;;;;10.23;3.70;;;;;;;;;;5072183;28;20375;-82
2023/06/21 11:00:53;;;;;;;7.88;3.40;;;;;;;;;;5072080;28;20384;-82
2023/06/21 11:03:25;;;;;;;9.73;3.58;;;;;;;;;;5072134;28;20488;-82
2023/06/21 11:05:55;;;;;;;8.80;3.30;;;;;;;;;;5071966;28;20924;-83
2023/06/21 11:08:31;;;;;;;7.60;3.58;;;;;;;;;;5072055;28;20714;-83
2023/06/21 11:10:57;;;;;;;6.75;3.20;;;;;;;;;;5045965;28;20379;-83
2023/06/21 11:13:37;;;;;;;11.38;3.78;;;;;;;;;;5044868;28;20435;-83
2023/06/21 11:16:13;;;;;;;10.75;4.85;;;;;;;;;;5049198;28;20393;-83
2023/06/21 11:18:39;;;;;;;13.38;7.07;;;;;;;;;;5036894;28;20387;-84
2023/06/21 11:21:05;;;;;;;14.23;8.18;;;;;;;;;;5037558;28;20375;-84
2023/06/21 11:23:32;;;;;;;13.07;7.80;;;;;;;;;;5035724;28;20382;-84
2023/06/21 11:26:03;;;;;;;12.02;6.53;;;;;;;;;;5051526;28;20439;-84
2023/06/21 11:28:33;;;;;;;11.93;5.85;;;;;;;;;;5051796;28;20882;-84
2023/06/21 11:30:59;;;;;;;11.90;5.20;;;;;;;;;;5051648;28;20392;-84
2023/06/21 11:33:34;;;;;;;12.00;6.32;;;;;;;;;;5053295;28;20408;-84
2023/06/21 11:36:04;;;;;;;10.40;4.88;;;;;;;;;;5051625;28;20742;-84
2023/06/21 11:38:30;;;;;;;10.40;4.90;;;;;;;;;;5051462;28;20373;-84
2023/06/21 11:40:57;;;;;;;11.60;5.47;;;;;;;;;;5051602;28;20377;-84
2023/06/21 11:43:23;;;;;;;10.02;5.43;;;;;;;;;;5051429;28;20434;-85
2023/06/21 11:46:00;;;;;;;12.23;5.13;;;;;;;;;;5051370;28;20389;-85
2023/06/21 11:48:32;;;;;;;10.13;5.47;;;;;;;;;;5051263;28;20381;-85
2023/06/21 11:51:08;;;;;;;10.30;5.35;;;;;;;;;;5050683;28;20883;-85
2023/06/21 11:53:42;;;;;;;13.73;5.28;;;;;;;;;;5033256;28;20445;-85
2023/06/21 11:56:13;;;;;;;8.63;5.28;;;;;;;;;;5030599;28;20850;-85
2023/06/21 11:58:39;;;;;;;13.98;5.32;;;;;;;;;;5031313;28;20379;-85
2023/06/21 12:01:07;;;;;;;10.55;4.90;;;;;;;;;;5031347;28;20466;-85
2023/06/21 12:03:32;;;;;;;7.70;5.05;;;;;;;;;;5031324;28;20481;-85
2023/06/21 12:05:59;;;;;;;10.57;5.10;;;;;;;;;;5031203;28;20817;-85
2023/06/21 12:08:26;;;;;;;10.35;5.63;;;;;;;;;;5031202;28;20383;-85
2023/06/21 12:10:53;;;;;;;11.27;5.18;;;;;;;;;;5031225;28;20801;-86
2023/06/21 12:13:19;;;;;;;9.20;4.82;;;;;;;;;;5037693;28;20414;-85
2023/06/21 12:15:52;;;;;;;8.02;4.63;;;;;;;;;;5033340;28;20385;-85
2023/06/21 12:18:19;;;;;;;8.30;4.70;;;;;;;;;;5047626;28;20416;-85
2023/06/21 12:20:45;;;;;;;12.20;5.10;;;;;;;;;;5039539;28;20444;-85
2023/06/21 12:23:11;;;;;;;10.65;4.95;;;;;;;;;;5066841;22;20385;-76
2023/06/21 12:25:50;;;;;;;9.77;4.95;;;;;;;;;;5090685;28;20897;-80
2023/06/21 12:28:17;;;;;;;8.73;4.85;;;;;;;;;;5091157;28;20423;-79
2023/06/21 12:30:46;;;;;;;8.80;4.60;;;;;;;;;;5091161;28;20369;-79
2023/06/21 12:33:12;;;;;;;9.27;4.95;;;;;;;;;;5091241;28;20413;-79
2023/06/21 12:35:38;;;;;;;8.15;4.32;;;;;;;;;;5091127;28;20382;-79
2023/06/21 12:38:15;;;;;;;13.25;4.63;;;;;;;;;;5091216;28;20377;-79
2023/06/21 12:41:00;;;;;;;6.93;4.10;;;;;;;;;;5091115;28;20381;-79
2023/06/21 12:43:41;;;;;;;6.63;4.10;;;;;;;;;;5091022;28;20378;-79
2023/06/21 12:46:08;;;;;;;7.22;3.95;;;;;;;;;;5094076;28;20401;-79
2023/06/21 12:48:34;;;;;;;8.90;4.30;;;;;;;;;;5094734;28;20381;-79
2023/06/21 12:51:01;;;;;;;7.30;4.22;;;;;;;;;;5096054;28;20724;-79
2023/06/21 12:53:29;;;;;;;6.32;3.72;;;;;;;;;;5094767;28;20426;-79
2023/06/21 12:56:02;;;;;;;5.68;3.90;;;;;;;;;;5095099;28;20381;-79
2023/06/21 12:58:28;;;;;;;8.48;4.22;;;;;;;;;;5093629;28;20883;-80
2023/06/21 13:00:54;;;;;;;7.60;3.88;;;;;;;;;;5094853;28;20413;-80
2023/06/21 13:03:20;;;;;;;8.18;3.92;;;;;;;;;;5094749;28;20777;-80
2023/06/21 13:05:46;;;;;;;6.18;4.00;;;;;;;;;;5094863;28;20405;-80
2023/06/21 13:08:13;;;;;;;6.68;3.63;;;;;;;;;;5095095;28;21160;-80
2023/06/21 13:10:39;;;;;;;6.80;3.58;;;;;;;;;;5094640;28;20866;-80
2023/06/21 13:13:05;;;;;;;6.20;3.53;;;;;;;;;;5094317;28;20409;-80
2023/06/21 13:15:31;;;;;;;6.43;3.83;;;;;;;;;;5091837;28;20432;-80
2023/06/21 13:17:56;;;;;;;5.00;3.60;;;;;;;;;;5074472;28;20856;-80
2023/06/21 13:20:23;;;;;;;5.90;3.53;;;;;;;;;;5092324;28;20378;-80
2023/06/21 13:22:49;;;;;;;6.53;3.70;;;;;;;;;;5090069;28;20869;-80
2023/06/21 13:25:15;;;;;;;6.03;3.63;;;;;;;;;;5080846;28;20887;-80
2023/06/21 13:27:42;;;;;;;6.60;3.50;;;;;;;;;;5075286;28;20383;-80
2023/06/21 13:30:08;;;;;;;5.80;3.60;;;;;;;;;;5094261;28;20390;-80
2023/06/21 13:32:36;;;;;;;6.00;3.42;;;;;;;;;;5094049;28;20917;-80
2023/06/21 13:35:02;;;;;;;6.80;3.65;;;;;;;;;;5096762;28;20383;-80
2023/06/21 13:37:28;;;;;;;8.05;3.67;;;;;;;;;;5094184;28;20382;-80
2023/06/21 13:39:54;;;;;;;6.40;3.42;;;;;;;;;;5093973;28;20382;-80
2023/06/21 13:42:20;;;;;;;7.30;3.72;;;;;;;;;;5094065;28;20382;-79
2023/06/21 13:44:46;;;;;;;6.53;3.80;;;;;;;;;;5093497;28;20903;-80
2023/06/21 13:47:12;;;;;;;5.97;3.80;;;;;;;;;;5092739;28;20440;-79
2023/06/21 13:49:38;;;;;;;9.05;3.63;;;;;;;;;;5093689;28;20393;-80
2023/06/21 13:52:04;;;;;;;6.32;3.90;;;;;;;;;;5093809;28;20759;-80
2023/06/21 13:54:30;;;;;;;4.22;3.40;;;;;;;;;;5093895;28;20374;-80
2023/06/21 13:56:56;;;;;;;5.82;3.35;;;;;;;;;;5093174;28;20376;-80
2023/06/21 13:59:22;;;;;;;5.72;3.67;;;;;;;;;;5093518;28;20370;-80
2023/06/21 14:01:48;;;;;;;8.13;3.70;;;;;;;;;;5093909;28;20934;-79
2023/06/21 14:04:14;;;;;;;7.20;3.65;;;;;;;;;;5093705;28;20461;-80
2023/06/21 14:06:40;;;;;;;6.97;3.28;;;;;;;;;;5093743;28;20730;-80
2023/06/21 14:09:07;;;;;;;7.63;3.60;;;;;;;;;;5093364;28;20378;-80
2023/06/21 14:11:33;;;;;;;5.65;3.58;;;;;;;;;;5093605;28;20464;-80
2023/06/21 14:13:59;;;;;;;6.55;3.50;;;;;;;;;;5093459;28;20465;-80
2023/06/21 14:16:25;;;;;;;6.25;3.80;;;;;;;;;;5093448;28;20423;-80
2023/06/21 14:18:51;;;;;;;7.07;3.60;;;;;;;;;;5093260;28;20906;-80
2023/06/21 14:21:17;;;;;;;5.20;3.30;;;;;;;;;;5096588;28;20374;-80
2023/06/21 14:23:43;;;;;;;6.50;3.28;;;;;;;;;;5103307;28;20393;-80
2023/06/21 14:26:09;;;;;;;6.68;3.45;;;;;;;;;;5084418;28;20876;-80
2023/06/21 14:28:39;;;;;;;7.80;3.70;;;;;;;;;;5078645;28;20387;-80
2023/06/21 14:31:05;;;;;;;5.67;3.50;;;;;;;;;;5089670;28;20378;-80
2023/06/21 14:33:31;;;;;;;6.93;3.65;;;;;;;;;;5073815;28;20406;-80
2023/06/21 14:35:57;;;;;;;7.18;3.65;;;;;;;;;;5072775;28;20379;-80